createdAt,value
2019-03-01T00:02:09.927Z,89.80
2019-03-01T00:05:00.358Z,89.69
2019-03-01T00:07:55.623Z,89.91
2019-03-01T00:10:37.836Z,89.94
2019-03-01T00:13:41.667Z,89.97
2019-03-01T00:16:43.164Z,90.43
2019-03-01T00:19:45.722Z,90.61
2019-03-01T00:22:42.931Z,91.30
2019-03-01T00:25:45.727Z,90.89
2019-03-01T00:28:44.232Z,90.91
2019-03-01T00:32:15.827Z,92.43
2019-03-01T00:35:25.841Z,92.01
2019-03-01T00:38:07.265Z,92.06
2019-03-01T00:40:51.438Z,92.08
2019-03-01T00:44:05.034Z,92.08
2019-03-01T00:46:34.546Z,92.31
2019-03-01T00:49:03.850Z,92.30
2019-03-01T00:51:33.165Z,92.25
2019-03-01T00:54:02.479Z,92.54
2019-03-01T00:56:31.840Z,92.28
2019-03-01T00:59:01.347Z,92.12
2019-03-01T01:01:30.738Z,90.94
2019-03-01T01:04:00.083Z,90.51
2019-03-01T01:06:29.346Z,90.78
2019-03-01T01:08:58.727Z,90.67
2019-03-01T01:11:28.095Z,91.03
2019-03-01T01:13:57.393Z,91.07
2019-03-01T01:16:26.846Z,91.27
2019-03-01T01:18:56.131Z,90.81
2019-03-01T01:21:25.441Z,91.02
2019-03-01T01:23:54.878Z,91.34
2019-03-01T01:26:24.287Z,91.37
2019-03-01T01:28:53.624Z,91.41
2019-03-01T01:31:23.014Z,92.17
2019-03-01T01:33:52.321Z,91.94
2019-03-01T01:36:21.676Z,92.04
2019-03-01T01:38:51.089Z,92.28
2019-03-01T01:41:20.364Z,92.32
2019-03-01T01:43:49.654Z,92.23
2019-03-01T01:46:19.035Z,92.21
2019-03-01T01:48:48.290Z,92.23
2019-03-01T01:51:17.562Z,92.37
2019-03-01T01:53:46.893Z,92.58
2019-03-01T01:56:16.257Z,92.70
2019-03-01T01:58:45.571Z,92.52
2019-03-01T02:01:15.062Z,92.35
2019-03-01T02:03:44.368Z,92.44
2019-03-01T02:06:13.647Z,92.46
2019-03-01T02:08:43.199Z,92.63
2019-03-01T02:11:13.075Z,92.78
2019-03-01T02:13:42.392Z,92.99
2019-03-01T02:16:11.880Z,92.92
2019-03-01T02:18:41.180Z,92.81
2019-03-01T02:21:10.468Z,92.67
2019-03-01T02:23:40.229Z,92.48
2019-03-01T02:26:09.570Z,92.23
2019-03-01T02:28:39.988Z,91.80
2019-03-01T02:31:09.438Z,90.89
2019-03-01T02:33:38.735Z,90.55
2019-03-01T02:36:08.079Z,90.51
2019-03-01T02:38:37.563Z,91.14
2019-03-01T02:41:06.927Z,91.44
2019-03-01T02:43:36.281Z,91.38
2019-03-01T02:46:05.915Z,91.59
2019-03-01T02:48:35.243Z,91.56
2019-03-01T02:51:04.537Z,91.79
2019-03-01T02:53:33.836Z,91.87
2019-03-01T02:56:03.170Z,91.89
2019-03-01T02:58:32.441Z,91.55
2019-03-01T03:01:01.886Z,90.80
2019-03-01T03:03:31.273Z,90.28
2019-03-01T03:06:18.025Z,90.45
2019-03-01T03:08:47.326Z,90.81
2019-03-01T03:11:16.655Z,91.29
2019-03-01T03:13:46.072Z,91.58
2019-03-01T03:16:15.410Z,91.79
2019-03-01T03:18:44.704Z,91.79
2019-03-01T03:21:14.103Z,91.76
2019-03-01T03:23:43.454Z,92.15
2019-03-01T03:26:12.797Z,92.33
2019-03-01T03:28:42.172Z,92.60
2019-03-01T03:31:11.457Z,92.61
2019-03-01T03:33:40.743Z,92.55
2019-03-01T03:36:10.440Z,92.29
2019-03-01T03:38:39.724Z,92.27
2019-03-01T03:41:09.085Z,92.00
2019-03-01T03:43:38.701Z,92.08
2019-03-01T03:46:07.950Z,91.94
2019-03-01T03:48:37.257Z,92.02
2019-03-01T03:51:06.661Z,91.76
2019-03-01T03:53:35.939Z,91.78
2019-03-01T03:56:05.652Z,91.92
2019-03-01T03:58:35.213Z,91.79
2019-03-01T04:01:04.607Z,91.95
2019-03-01T04:03:33.958Z,92.03
2019-03-01T04:06:03.428Z,91.91
2019-03-01T04:08:32.695Z,91.91
2019-03-01T04:11:02.002Z,92.07
2019-03-01T04:13:31.517Z,92.08
2019-03-01T04:16:00.841Z,92.02
2019-03-01T04:18:30.108Z,91.98
2019-03-01T04:20:59.722Z,91.96
2019-03-01T04:23:29.069Z,92.49
2019-03-01T04:25:58.319Z,92.25
2019-03-01T04:28:27.670Z,92.49
2019-03-01T04:30:56.977Z,92.79
2019-03-01T04:33:26.258Z,92.82
2019-03-01T04:35:55.621Z,92.65
2019-03-01T04:38:24.902Z,92.66
2019-03-01T04:40:54.261Z,92.69
2019-03-01T04:43:23.565Z,92.65
2019-03-01T04:45:52.897Z,92.73
2019-03-01T04:48:22.203Z,92.58
2019-03-01T04:50:51.559Z,92.84
2019-03-01T04:53:20.866Z,92.84
2019-03-01T04:55:50.206Z,92.77
2019-03-01T04:58:19.806Z,92.83
2019-03-01T05:00:49.142Z,92.81
2019-03-01T05:03:18.448Z,93.60
2019-03-01T05:05:47.841Z,93.50
2019-03-01T05:08:17.122Z,93.28
2019-03-01T05:10:46.412Z,93.25
2019-03-01T05:13:15.834Z,93.23
2019-03-01T05:15:45.147Z,92.88
2019-03-01T05:18:14.455Z,93.40
2019-03-01T05:20:44.020Z,92.87
2019-03-01T05:23:13.296Z,92.96
2019-03-01T05:25:42.625Z,93.05
2019-03-01T05:28:11.931Z,92.85
2019-03-01T05:30:41.272Z,92.47
2019-03-01T05:33:10.598Z,92.10
2019-03-01T05:35:39.996Z,91.70
2019-03-01T05:38:09.307Z,91.06
2019-03-01T05:40:38.669Z,91.09
2019-03-01T05:43:08.065Z,91.12
2019-03-01T05:45:37.395Z,91.52
2019-03-01T05:48:06.745Z,91.44
2019-03-01T05:50:36.212Z,91.45
2019-03-01T05:53:05.569Z,91.48
2019-03-01T05:55:34.892Z,92.01
2019-03-01T05:58:28.139Z,92.10
2019-03-01T06:00:59.633Z,92.45
2019-03-01T06:03:52.979Z,92.68
2019-03-01T06:06:30.749Z,92.84
2019-03-01T06:09:20.376Z,92.53
2019-03-01T06:12:29.496Z,92.40
2019-03-01T06:15:30.642Z,92.24
2019-03-01T06:18:40.874Z,91.88
2019-03-01T06:21:49.643Z,91.48
2019-03-01T06:24:57.204Z,91.86
2019-03-01T06:27:49.107Z,93.15
2019-03-01T06:30:52.119Z,93.22
2019-03-01T06:33:57.626Z,92.77
2019-03-01T06:37:03.524Z,91.84
2019-03-01T06:40:27.225Z,83.92
2019-03-01T06:43:55.245Z,79.15
2019-03-01T06:46:47.653Z,76.30
2019-03-01T06:49:22.030Z,76.11
2019-03-01T06:51:51.483Z,72.96
2019-03-01T06:54:20.811Z,70.19
2019-03-01T06:56:50.108Z,65.05
2019-03-01T06:59:19.589Z,61.29
2019-03-01T07:01:49.444Z,60.15
2019-03-01T07:04:19.270Z,60.94
2019-03-01T07:06:48.873Z,61.60
2019-03-01T07:09:18.167Z,63.37
2019-03-01T07:11:47.429Z,64.31
2019-03-01T07:14:16.951Z,64.50
2019-03-01T07:16:46.239Z,65.48
2019-03-01T07:19:15.559Z,65.96
2019-03-01T07:21:45.029Z,66.87
2019-03-01T07:24:14.395Z,68.20
2019-03-01T07:26:43.925Z,69.26
2019-03-01T07:29:13.552Z,70.14
2019-03-01T07:31:42.883Z,70.89
2019-03-01T07:34:12.236Z,71.63
2019-03-01T07:36:41.825Z,69.84
2019-03-01T07:39:11.312Z,69.09
2019-03-01T07:41:40.628Z,68.55
2019-03-01T07:44:10.285Z,69.11
2019-03-01T07:46:39.558Z,68.86
2019-03-01T07:49:08.833Z,66.41
2019-03-01T07:51:38.310Z,64.17
2019-03-01T07:54:07.570Z,62.27
2019-03-01T07:56:39.552Z,61.19
2019-03-01T07:59:08.229Z,61.34
2019-03-01T08:01:37.541Z,61.29
2019-03-01T08:04:06.860Z,61.28
2019-03-01T08:06:36.370Z,61.57
2019-03-01T08:09:12.816Z,62.56
2019-03-01T08:11:42.344Z,63.21
2019-03-01T08:14:11.658Z,61.75
2019-03-01T08:16:40.972Z,58.59
2019-03-01T08:19:10.410Z,57.38
2019-03-01T08:21:42.798Z,56.18
2019-03-01T08:24:11.847Z,55.23
2019-03-01T08:26:41.428Z,55.13
2019-03-01T08:29:10.727Z,57.30
2019-03-01T08:31:40.022Z,59.55
2019-03-01T08:34:09.589Z,61.75
2019-03-01T08:36:42.557Z,61.61
2019-03-01T08:39:09.961Z,61.19
2019-03-01T08:41:39.303Z,62.27
2019-03-01T08:44:08.635Z,63.57
2019-03-01T08:46:38.143Z,64.01
2019-03-01T08:49:10.544Z,64.46
2019-03-01T08:51:38.469Z,64.76
2019-03-01T08:54:07.851Z,64.37
2019-03-01T08:56:37.147Z,62.78
2019-03-01T08:59:06.441Z,61.44
2019-03-01T09:01:36.001Z,62.44
2019-03-01T09:04:08.592Z,63.11
2019-03-01T09:06:38.057Z,63.35
2019-03-01T09:09:08.771Z,60.57
2019-03-01T09:11:38.139Z,61.50
2019-03-01T09:14:07.629Z,59.96
2019-03-01T09:16:36.974Z,60.11
2019-03-01T09:19:06.269Z,58.78
2019-03-01T09:21:35.610Z,59.33
2019-03-01T09:24:05.060Z,59.04
2019-03-01T09:26:35.665Z,59.23
2019-03-01T09:29:05.378Z,59.24
2019-03-01T09:31:34.657Z,61.42
2019-03-01T09:34:06.068Z,61.79
2019-03-01T09:36:55.742Z,63.71
2019-03-01T09:39:25.129Z,64.79
2019-03-01T09:42:03.013Z,65.48
2019-03-01T09:44:25.422Z,67.40
2019-03-01T09:46:54.716Z,67.38
2019-03-01T09:49:24.383Z,67.94
2019-03-01T09:51:54.495Z,68.54
2019-03-01T09:54:23.809Z,67.82
2019-03-01T09:56:53.123Z,68.28
2019-03-01T09:59:22.560Z,67.95
2019-03-01T10:01:51.898Z,67.79
2019-03-01T10:04:21.244Z,68.12
2019-03-01T10:06:50.555Z,65.44
2019-03-01T10:09:19.913Z,64.27
2019-03-01T10:11:49.243Z,60.42
2019-03-01T10:14:19.738Z,57.98
2019-03-01T10:16:53.009Z,60.41
2019-03-01T10:19:22.564Z,59.49
2019-03-01T10:21:52.056Z,59.87
2019-03-01T10:24:21.359Z,58.61
2019-03-01T10:26:50.766Z,61.91
2019-03-01T10:29:20.056Z,55.44
2019-03-01T10:31:49.377Z,53.65
2019-03-01T10:34:18.995Z,54.23
2019-03-01T10:36:48.271Z,51.65
2019-03-01T10:39:17.559Z,46.43
2019-03-01T10:41:48.664Z,46.66
2019-03-01T10:44:18.082Z,43.99
2019-03-01T10:46:47.375Z,47.35
2019-03-01T10:49:16.678Z,45.01
2019-03-01T10:51:46.059Z,46.04
2019-03-01T10:54:15.355Z,51.45
2019-03-01T10:56:44.838Z,47.25
2019-03-01T10:59:14.175Z,50.96
2019-03-01T11:01:43.490Z,46.79
2019-03-01T11:04:12.895Z,49.84
2019-03-01T11:06:42.165Z,48.71
2019-03-01T11:09:11.845Z,45.80
2019-03-01T11:11:41.385Z,45.41
2019-03-01T11:14:10.653Z,45.84
2019-03-01T11:16:39.968Z,42.33
2019-03-01T11:19:09.488Z,40.42
2019-03-01T11:21:38.852Z,46.62
2019-03-01T11:24:08.140Z,47.36
2019-03-01T11:26:37.490Z,46.89
2019-03-01T11:29:06.839Z,47.33
2019-03-01T11:31:36.124Z,45.55
2019-03-01T11:34:05.722Z,43.62
2019-03-01T11:36:35.023Z,43.07
2019-03-01T11:39:05.326Z,45.68
2019-03-01T11:41:34.703Z,44.22
2019-03-01T11:44:04.312Z,43.22
2019-03-01T11:46:33.675Z,45.10
2019-03-01T11:49:03.060Z,49.45
2019-03-01T11:51:32.323Z,56.19
2019-03-01T11:54:01.650Z,61.20
2019-03-01T11:56:31.175Z,65.82
2019-03-01T11:59:00.460Z,68.34
2019-03-01T12:01:29.754Z,69.35
2019-03-01T12:03:59.084Z,70.38
2019-03-01T12:06:28.369Z,71.14
2019-03-01T12:08:57.705Z,71.64
2019-03-01T12:11:27.015Z,71.58
2019-03-01T12:13:56.350Z,72.52
2019-03-01T12:16:25.678Z,73.05
2019-03-01T12:18:55.234Z,72.85
2019-03-01T12:21:24.516Z,71.58
2019-03-01T12:23:53.903Z,73.09
2019-03-01T12:26:23.214Z,72.70
2019-03-01T12:28:52.477Z,72.89
2019-03-01T12:31:21.781Z,72.95
2019-03-01T12:33:51.113Z,72.39
2019-03-01T12:36:20.415Z,72.22
2019-03-01T12:38:49.935Z,71.38
2019-03-01T12:41:19.221Z,71.71
2019-03-01T12:43:48.594Z,72.08
2019-03-01T12:46:17.897Z,71.08
2019-03-01T12:48:47.442Z,72.03
2019-03-01T12:51:16.729Z,72.41
2019-03-01T12:53:46.039Z,72.88
2019-03-01T12:56:15.625Z,73.26
2019-03-01T12:58:44.942Z,72.38
2019-03-01T13:01:14.232Z,72.51
2019-03-01T13:03:44.603Z,72.99
2019-03-01T13:06:13.952Z,73.50
2019-03-01T13:08:43.235Z,74.22
2019-03-01T13:11:16.141Z,74.19
2019-03-01T13:13:43.753Z,73.90
2019-03-01T13:16:13.207Z,73.61
2019-03-01T13:18:42.497Z,72.75
2019-03-01T13:21:12.988Z,73.02
2019-03-01T13:23:45.317Z,74.14
2019-03-01T13:26:14.290Z,73.29
2019-03-01T13:28:43.862Z,74.43
2019-03-01T13:31:14.776Z,74.12
2019-03-01T13:33:44.056Z,74.12
2019-03-01T13:36:13.552Z,74.29
2019-03-01T13:38:43.101Z,74.97
2019-03-01T13:41:12.379Z,74.71
2019-03-01T13:43:41.649Z,74.31
2019-03-01T13:46:11.068Z,74.57
2019-03-01T13:48:40.386Z,74.38
2019-03-01T13:51:09.701Z,74.02
2019-03-01T13:53:48.511Z,74.59
2019-03-01T13:56:10.789Z,73.85
2019-03-01T13:58:40.078Z,74.72
2019-03-01T14:01:09.486Z,73.96
2019-03-01T14:03:38.769Z,74.12
2019-03-01T14:06:08.075Z,74.41
2019-03-01T14:08:37.602Z,74.78
2019-03-01T14:11:06.871Z,75.19
2019-03-01T14:13:36.191Z,75.41
2019-03-01T14:16:05.501Z,75.22
2019-03-01T14:18:36.774Z,74.29
2019-03-01T14:21:06.280Z,74.49
2019-03-01T14:23:35.613Z,74.37
2019-03-01T14:26:04.952Z,74.37
2019-03-01T14:28:34.311Z,74.51
2019-03-01T14:31:03.970Z,74.44
2019-03-01T14:33:34.596Z,74.50
2019-03-01T14:36:04.007Z,74.88
2019-03-01T14:38:33.341Z,73.73
2019-03-01T14:41:02.621Z,74.56
2019-03-01T14:43:31.891Z,74.50
2019-03-01T14:46:01.235Z,74.16
2019-03-01T14:48:30.519Z,73.98
2019-03-01T14:50:59.884Z,74.26
2019-03-01T14:53:31.143Z,74.83
2019-03-01T14:56:05.599Z,74.28
2019-03-01T14:58:38.882Z,73.96
2019-03-01T15:01:17.067Z,74.02
2019-03-01T15:03:49.784Z,73.88
2019-03-01T15:06:19.100Z,73.78
2019-03-01T15:08:48.626Z,74.09
2019-03-01T15:11:20.022Z,73.61
2019-03-01T15:13:50.615Z,73.43
2019-03-01T15:16:19.908Z,73.37
2019-03-01T15:18:49.333Z,72.82
2019-03-01T15:21:18.620Z,73.29
2019-03-01T15:23:47.918Z,73.55
2019-03-01T15:26:17.214Z,74.07
2019-03-01T15:28:53.826Z,74.71
2019-03-01T15:31:19.501Z,74.92
2019-03-01T15:33:49.099Z,75.23
2019-03-01T15:36:19.139Z,75.34
2019-03-01T15:38:48.536Z,75.62
2019-03-01T15:41:18.059Z,75.41
2019-03-01T15:43:47.453Z,75.89
2019-03-01T15:46:17.995Z,76.45
2019-03-01T15:48:47.683Z,76.45
2019-03-01T15:51:16.985Z,76.73
2019-03-01T15:53:46.233Z,77.20
2019-03-01T15:56:15.749Z,77.86
2019-03-01T15:58:46.611Z,78.04
2019-03-01T16:01:16.120Z,78.55
2019-03-01T16:03:45.479Z,79.09
2019-03-01T16:06:19.215Z,79.23
2019-03-01T16:08:48.000Z,79.83
2019-03-01T16:11:16.956Z,79.97
2019-03-01T16:13:49.030Z,79.99
2019-03-01T16:16:17.321Z,80.03
2019-03-01T16:18:46.572Z,80.56
2019-03-01T16:21:15.954Z,80.98
2019-03-01T16:23:45.479Z,81.15
2019-03-01T16:26:14.782Z,81.57
2019-03-01T16:28:44.071Z,82.21
2019-03-01T16:31:13.364Z,82.04
2019-03-01T16:33:42.697Z,82.24
2019-03-01T16:36:27.722Z,82.54
2019-03-01T16:38:56.964Z,83.04
2019-03-01T16:41:26.352Z,83.28
2019-03-01T16:43:55.976Z,83.49
2019-03-01T16:46:25.289Z,83.15
2019-03-01T16:48:54.638Z,83.10
2019-03-01T16:51:24.076Z,83.16
2019-03-01T16:53:53.338Z,83.33
2019-03-01T16:56:22.630Z,83.97
2019-03-01T16:58:51.970Z,84.28
2019-03-01T17:01:21.264Z,84.50
2019-03-01T17:03:52.634Z,85.61
2019-03-01T17:06:21.749Z,85.92
2019-03-01T17:08:53.106Z,85.69
2019-03-01T17:11:22.120Z,85.92
2019-03-01T17:13:51.692Z,85.41
2019-03-01T17:16:23.609Z,85.84
2019-03-01T17:18:52.318Z,86.16
2019-03-01T17:21:21.725Z,86.22
2019-03-01T17:23:51.118Z,86.39
2019-03-01T17:26:20.393Z,86.89
2019-03-01T17:28:49.953Z,86.67
2019-03-01T17:31:19.261Z,86.95
2019-03-01T17:33:48.834Z,87.26
2019-03-01T17:36:19.216Z,87.53
2019-03-01T17:38:48.536Z,87.54
2019-03-01T17:41:17.952Z,88.46
2019-03-01T17:43:47.205Z,87.86
2019-03-01T17:46:16.555Z,88.25
2019-03-01T17:48:46.738Z,88.11
2019-03-01T17:51:18.186Z,88.57
2019-03-01T17:53:47.775Z,88.73
2019-03-01T17:56:18.738Z,88.92
2019-03-01T17:58:48.172Z,89.53
2019-03-01T18:01:17.548Z,89.60
2019-03-01T18:03:46.850Z,89.59
2019-03-01T18:06:16.871Z,89.60
2019-03-01T18:08:47.180Z,89.54
2019-03-01T18:11:16.486Z,89.71
2019-03-01T18:13:45.855Z,89.58
2019-03-01T18:16:15.353Z,89.74
2019-03-01T18:18:48.763Z,90.02
2019-03-01T18:21:15.743Z,90.12
2019-03-01T18:23:45.153Z,90.37
2019-03-01T18:26:14.465Z,90.45
2019-03-01T18:28:43.818Z,90.23
2019-03-01T18:31:13.156Z,90.03
2019-03-01T18:33:42.763Z,89.95
2019-03-01T18:36:12.064Z,90.17
2019-03-01T18:38:41.453Z,90.56
2019-03-01T18:41:11.171Z,90.92
2019-03-01T18:43:40.497Z,90.69
2019-03-01T18:46:09.913Z,90.40
2019-03-01T18:48:40.565Z,90.58
2019-03-01T18:51:10.250Z,90.62
2019-03-01T18:53:39.745Z,90.54
2019-03-01T18:56:09.033Z,90.74
2019-03-01T18:58:38.361Z,91.87
2019-03-01T19:01:10.832Z,91.43
2019-03-01T19:03:41.220Z,91.12
2019-03-01T19:06:12.957Z,91.06
2019-03-01T19:08:42.017Z,90.97
2019-03-01T19:11:11.302Z,90.58
2019-03-01T19:13:40.639Z,90.63
2019-03-01T19:16:09.923Z,90.63
2019-03-01T19:18:39.226Z,90.29
2019-03-01T19:21:08.546Z,90.78
2019-03-01T19:23:37.876Z,90.67
2019-03-01T19:26:07.197Z,91.16
2019-03-01T19:28:36.483Z,91.76
2019-03-01T19:31:05.902Z,91.69
2019-03-01T19:33:37.866Z,91.76
2019-03-01T19:36:06.406Z,91.98
2019-03-01T19:38:35.784Z,91.84
2019-03-01T19:41:05.092Z,91.82
2019-03-01T19:43:34.524Z,92.03
2019-03-01T19:46:03.850Z,91.83
2019-03-01T19:48:34.477Z,91.94
2019-03-01T19:51:04.211Z,91.83
2019-03-01T19:53:33.526Z,91.82
2019-03-01T19:56:02.797Z,91.70
2019-03-01T19:58:32.353Z,91.67
2019-03-01T20:01:01.693Z,91.80
2019-03-01T20:03:31.027Z,91.95
2019-03-01T20:06:00.477Z,92.02
2019-03-01T20:08:30.858Z,91.91
2019-03-01T20:11:00.182Z,91.76
2019-03-01T20:13:29.469Z,91.66
2019-03-01T20:15:58.798Z,91.55
2019-03-01T20:18:28.181Z,91.81
2019-03-01T20:20:57.578Z,92.06
2019-03-01T20:23:29.473Z,92.14
2019-03-01T20:25:58.165Z,92.12
2019-03-01T20:28:27.498Z,92.40
2019-03-01T20:30:56.908Z,92.12
2019-03-01T20:33:27.783Z,91.98
2019-03-01T20:35:57.150Z,92.04
2019-03-01T20:38:26.422Z,92.64
2019-03-01T20:40:55.918Z,92.30
2019-03-01T20:43:25.252Z,92.27
2019-03-01T20:45:54.658Z,92.77
2019-03-01T20:48:25.629Z,92.60
2019-03-01T20:50:55.151Z,93.24
2019-03-01T20:53:24.457Z,93.53
2019-03-01T20:55:54.002Z,93.83
2019-03-01T20:58:23.365Z,93.99
2019-03-01T21:00:52.678Z,94.19
2019-03-01T21:03:24.935Z,94.39
2019-03-01T21:05:53.142Z,94.17
2019-03-01T21:08:22.482Z,94.25
2019-03-01T21:10:51.807Z,94.08
2019-03-01T21:13:21.203Z,94.09
2019-03-01T21:15:50.490Z,93.95
2019-03-01T21:18:19.881Z,93.87
2019-03-01T21:20:50.569Z,93.68
2019-03-01T21:23:20.261Z,93.83
2019-03-01T21:25:49.881Z,93.77
2019-03-01T21:28:19.236Z,93.82
2019-03-01T21:30:48.550Z,93.62
2019-03-01T21:33:17.871Z,93.83
2019-03-01T21:35:47.844Z,93.68
2019-03-01T21:38:18.239Z,93.31
2019-03-01T21:40:47.719Z,93.09
2019-03-01T21:43:17.059Z,93.26
2019-03-01T21:45:46.450Z,93.19
2019-03-01T21:48:15.828Z,93.35
2019-03-01T21:50:45.227Z,93.53
2019-03-01T21:53:14.511Z,93.51
2019-03-01T21:55:43.944Z,93.57
2019-03-01T21:58:13.402Z,93.60
2019-03-01T22:00:42.717Z,93.48
2019-03-01T22:03:11.985Z,93.60
2019-03-01T22:05:41.353Z,93.58
2019-03-01T22:08:12.964Z,93.66
2019-03-01T22:10:41.872Z,93.50
2019-03-01T22:13:11.191Z,93.20
2019-03-01T22:15:40.504Z,93.07
2019-03-01T22:18:09.917Z,92.93
2019-03-01T22:20:41.624Z,93.08
2019-03-01T22:23:15.535Z,92.96
2019-03-01T22:25:41.501Z,93.03
2019-03-01T22:28:10.852Z,93.40
2019-03-01T22:30:40.167Z,93.33
2019-03-01T22:33:09.622Z,93.42
2019-03-01T22:35:40.515Z,93.41
2019-03-01T22:38:10.238Z,93.43
2019-03-01T22:40:39.548Z,93.52
2019-03-01T22:43:08.863Z,93.50
2019-03-01T22:45:38.328Z,93.45
2019-03-01T22:48:08.461Z,93.37
2019-03-01T22:50:39.519Z,93.56
2019-03-01T22:53:08.993Z,93.53
2019-03-01T22:55:38.296Z,93.82
2019-03-01T22:58:08.556Z,93.84
2019-03-01T23:01:09.474Z,93.97
2019-03-01T23:03:38.932Z,93.93
2019-03-01T23:06:11.603Z,93.89
2019-03-01T23:08:39.438Z,93.79
2019-03-01T23:11:08.783Z,93.86
2019-03-01T23:13:38.157Z,94.03
2019-03-01T23:16:08.061Z,93.99
2019-03-01T23:18:37.560Z,94.04
2019-03-01T23:21:08.516Z,93.96
2019-03-01T23:23:37.817Z,94.02
2019-03-01T23:26:07.095Z,93.92
2019-03-01T23:28:36.408Z,94.02
2019-03-01T23:31:05.724Z,94.00
2019-03-01T23:33:35.062Z,94.28
2019-03-01T23:36:04.388Z,94.13
2019-03-01T23:38:33.751Z,94.17
2019-03-01T23:41:03.083Z,94.01
2019-03-01T23:43:32.377Z,93.98
2019-03-01T23:46:01.753Z,94.08
2019-03-01T23:48:31.038Z,94.08
2019-03-01T23:51:00.335Z,93.92
2019-03-01T23:53:30.898Z,93.90
2019-03-01T23:56:00.915Z,93.90
2019-03-01T23:58:30.268Z,93.96
